createdAt,value
2022-08-30T00:03:46.178Z,15.05
2022-08-30T00:08:41.827Z,12.50
2022-08-30T00:13:35.688Z,9.70
2022-08-30T00:18:32.047Z,12.25
2022-08-30T00:23:26.042Z,12.20
2022-08-30T00:28:25.175Z,10.65
2022-08-30T00:33:21.167Z,13.25
2022-08-30T00:38:15.628Z,11.73
2022-08-30T00:43:15.926Z,12.20
2022-08-30T00:48:10.945Z,15.57
2022-08-30T00:53:08.300Z,13.52
2022-08-30T00:58:05.150Z,12.48
2022-08-30T01:03:01.991Z,14.20
2022-08-30T01:07:58.958Z,11.27
2022-08-30T01:12:55.135Z,12.32
2022-08-30T01:17:54.410Z,10.25
2022-08-30T01:23:04.171Z,11.60
2022-08-30T01:28:04.714Z,9.77
2022-08-30T01:33:00.371Z,14.10
2022-08-30T01:37:53.662Z,13.80
2022-08-30T01:42:49.093Z,11.18
2022-08-30T01:47:42.513Z,13.77
2022-08-30T01:52:36.100Z,14.32
2022-08-30T01:57:29.537Z,10.70
2022-08-30T02:02:28.190Z,12.45
2022-08-30T02:07:21.722Z,11.53
2022-08-30T02:12:15.490Z,12.43
2022-08-30T02:17:11.853Z,11.05
2022-08-30T02:22:07.015Z,16.52
2022-08-30T02:27:00.345Z,11.05
2022-08-30T02:32:02.675Z,12.38
2022-08-30T02:36:56.517Z,9.98
2022-08-30T02:41:51.460Z,11.77
2022-08-30T02:46:45.611Z,13.75
2022-08-30T02:51:39.913Z,14.80
2022-08-30T02:56:33.248Z,10.50
2022-08-30T03:01:29.428Z,14.95
2022-08-30T03:06:22.972Z,13.35
2022-08-30T03:11:16.403Z,10.98
2022-08-30T03:16:10.511Z,13.82
2022-08-30T03:21:11.551Z,11.60
2022-08-30T03:26:05.243Z,13.60
2022-08-30T03:30:58.521Z,12.27
2022-08-30T03:35:51.793Z,13.90
2022-08-30T03:40:46.840Z,11.50
2022-08-30T03:45:40.138Z,14.55
2022-08-30T03:50:35.374Z,11.52
2022-08-30T03:55:29.975Z,12.50
2022-08-30T04:00:25.088Z,15.25
2022-08-30T04:05:18.809Z,13.35
2022-08-30T04:10:12.767Z,11.85
2022-08-30T04:15:07.782Z,15.73
2022-08-30T04:20:02.465Z,12.25
2022-08-30T04:24:55.774Z,12.80
2022-08-30T04:29:49.608Z,13.18
2022-08-30T04:34:43.050Z,14.32
2022-08-30T04:39:38.013Z,14.30
2022-08-30T04:44:33.011Z,14.93
2022-08-30T04:49:29.782Z,12.40
2022-08-30T04:54:23.357Z,15.00
2022-08-30T04:59:18.067Z,13.40
2022-08-30T05:04:11.444Z,13.82
2022-08-30T05:09:06.498Z,13.93
2022-08-30T05:14:00.311Z,18.60
2022-08-30T05:18:55.955Z,17.70
2022-08-30T05:23:49.952Z,12.82
2022-08-30T05:28:43.364Z,16.42
2022-08-30T05:33:38.832Z,15.00
2022-08-30T05:38:33.880Z,16.25
2022-08-30T05:43:30.005Z,15.82
2022-08-30T05:48:23.712Z,15.60
2022-08-30T05:53:17.357Z,18.60
2022-08-30T05:58:12.181Z,16.15
2022-08-30T06:03:05.598Z,17.58
2022-08-30T06:07:58.884Z,14.52
2022-08-30T06:12:52.278Z,14.27
2022-08-30T06:17:47.126Z,19.38
2022-08-30T06:22:40.481Z,21.30
2022-08-30T06:27:33.958Z,19.17
2022-08-30T06:32:27.275Z,16.83
2022-08-30T06:37:29.543Z,18.08
2022-08-30T06:42:24.433Z,13.75
2022-08-30T06:47:17.710Z,16.40
2022-08-30T06:52:11.287Z,14.70
2022-08-30T06:57:06.338Z,15.93
2022-08-30T07:02:00.042Z,14.80
2022-08-30T07:06:53.477Z,14.88
2022-08-30T07:11:47.078Z,18.83
2022-08-30T07:16:44.529Z,14.20
2022-08-30T07:21:43.459Z,14.57
2022-08-30T07:26:41.439Z,14.77
2022-08-30T07:31:36.393Z,15.15
2022-08-30T07:36:31.213Z,18.67
2022-08-30T07:41:27.717Z,17.02
2022-08-30T07:46:25.372Z,14.98
2022-08-30T07:51:21.814Z,14.85
2022-08-30T07:56:17.068Z,20.23
2022-08-30T08:01:12.622Z,17.00
2022-08-30T08:06:08.440Z,17.42
2022-08-30T08:11:09.776Z,18.17
2022-08-30T08:16:04.880Z,16.60
2022-08-30T08:20:58.325Z,16.02
2022-08-30T08:25:51.863Z,17.42
2022-08-30T08:30:48.246Z,24.42
2022-08-30T08:35:43.441Z,14.82
2022-08-30T08:40:44.533Z,13.35
2022-08-30T08:45:48.627Z,14.30
2022-08-30T08:51:02.814Z,12.23
2022-08-30T08:55:56.275Z,13.45
2022-08-30T09:00:49.560Z,21.35
2022-08-30T09:05:44.767Z,11.15
2022-08-30T09:10:50.802Z,12.90
2022-08-30T09:15:44.618Z,14.32
2022-08-30T09:20:41.397Z,13.52
2022-08-30T09:25:41.278Z,10.23
2022-08-30T09:30:40.365Z,11.80
2022-08-30T09:35:37.306Z,12.23
2022-08-30T09:40:38.672Z,14.75
2022-08-30T09:45:34.981Z,11.73
2022-08-30T09:50:36.580Z,14.30
2022-08-30T09:55:46.800Z,15.57
2022-08-30T10:00:44.791Z,13.18
2022-08-30T10:05:52.064Z,11.90
2022-08-30T10:10:52.646Z,17.70
2022-08-30T10:15:50.656Z,10.73
2022-08-30T10:25:54.515Z,14.77
2022-08-30T10:30:59.326Z,12.88
2022-08-30T10:35:58.302Z,13.35
2022-08-30T10:41:19.831Z,7.45
2022-08-30T10:46:21.248Z,10.27
2022-08-30T10:51:24.092Z,12.35
2022-08-30T10:56:21.259Z,14.02
2022-08-30T11:01:38.686Z,18.43
2022-08-30T11:06:46.427Z,12.43
2022-08-30T11:12:00.532Z,11.10
2022-08-30T11:16:57.083Z,10.32
2022-08-30T11:21:52.543Z,9.00
2022-08-30T11:27:11.266Z,10.68
2022-08-30T11:32:24.061Z,9.48
2022-08-30T11:37:37.491Z,9.32
2022-08-30T11:42:37.332Z,8.50
2022-08-30T11:47:40.846Z,9.82
2022-08-30T11:52:56.664Z,11.00
2022-08-30T11:57:58.588Z,13.20
2022-08-30T12:02:59.137Z,9.82
2022-08-30T12:08:03.019Z,12.95
2022-08-30T12:12:57.362Z,9.00
2022-08-30T12:18:16.697Z,11.38
2022-08-30T12:23:22.449Z,8.57
2022-08-30T12:28:26.210Z,8.05
2022-08-30T12:33:29.376Z,9.77
2022-08-30T12:38:27.462Z,10.30
2022-08-30T12:43:38.932Z,8.02
2022-08-30T12:48:38.529Z,8.73
2022-08-30T12:53:37.215Z,11.00
2022-08-30T12:58:43.553Z,8.52
2022-08-30T13:03:38.180Z,9.83
2022-08-30T13:08:38.140Z,9.52
2022-08-30T13:13:39.253Z,6.72
2022-08-30T13:18:32.658Z,8.57
2022-08-30T13:23:30.666Z,10.25
2022-08-30T13:28:25.354Z,12.57
2022-08-30T13:33:19.107Z,12.07
2022-08-30T13:38:17.429Z,8.48
2022-08-30T13:43:10.719Z,9.23
2022-08-30T13:48:10.808Z,9.50
2022-08-30T13:53:04.361Z,7.85
2022-08-30T13:57:58.050Z,9.95
2022-08-30T14:02:54.153Z,8.38
2022-08-30T14:13:02.542Z,7.78
2022-08-30T14:18:01.637Z,12.20
2022-08-30T14:29:15.610Z,11.05
2022-08-30T14:34:11.446Z,13.77
2022-08-30T14:39:09.580Z,6.32
2022-08-30T14:44:02.903Z,12.23
2022-08-30T14:48:56.250Z,11.30
2022-08-30T14:53:53.204Z,12.73
2022-08-30T14:58:49.139Z,8.10
2022-08-30T15:03:42.991Z,10.63
2022-08-30T15:08:38.048Z,10.93
2022-08-30T15:13:32.712Z,10.15
2022-08-30T15:18:27.768Z,12.88
2022-08-30T15:23:22.844Z,12.75
2022-08-30T15:28:18.397Z,7.45
2022-08-30T15:33:12.018Z,11.93
2022-08-30T15:38:06.822Z,13.43
2022-08-30T15:43:00.086Z,13.60
2022-08-30T15:47:53.309Z,10.52
2022-08-30T15:52:46.659Z,8.75
2022-08-30T15:57:41.529Z,14.25
2022-08-30T16:02:35.086Z,15.02
2022-08-30T16:07:28.469Z,10.55
2022-08-30T16:12:23.557Z,10.00
2022-08-30T16:17:19.038Z,13.05
2022-08-30T16:22:14.501Z,9.60
2022-08-30T16:27:21.138Z,12.20
2022-08-30T16:32:14.736Z,19.17
2022-08-30T16:37:09.546Z,12.98
2022-08-30T16:42:03.494Z,18.95
2022-08-30T16:47:00.058Z,14.63
2022-08-30T16:51:53.521Z,12.23
2022-08-30T16:56:48.184Z,11.60
2022-08-30T17:01:56.091Z,17.30
2022-08-30T17:06:52.706Z,15.15
2022-08-30T17:11:52.381Z,19.58
2022-08-30T17:16:58.086Z,18.80
2022-08-30T17:22:01.536Z,17.33
2022-08-30T17:26:58.371Z,15.52
2022-08-30T17:31:54.689Z,27.38
2022-08-30T17:36:51.681Z,23.77
2022-08-30T17:41:50.483Z,25.73
2022-08-30T17:46:48.900Z,13.85
2022-08-30T17:51:47.723Z,14.73
2022-08-30T17:56:51.075Z,16.50
2022-08-30T18:01:57.725Z,14.38
2022-08-30T18:06:55.796Z,14.68
2022-08-30T18:11:56.303Z,18.00
2022-08-30T18:16:54.633Z,20.38
2022-08-30T18:21:48.315Z,15.52
2022-08-30T18:26:45.265Z,16.38
2022-08-30T18:31:38.610Z,12.00
2022-08-30T18:36:35.701Z,13.75
2022-08-30T18:41:42.909Z,13.15
2022-08-30T18:46:45.242Z,10.68
2022-08-30T18:51:56.369Z,12.43
2022-08-30T18:56:55.359Z,11.40
2022-08-30T19:01:51.354Z,9.93
2022-08-30T19:06:47.445Z,15.00
2022-08-30T19:11:45.179Z,11.98
2022-08-30T19:16:39.622Z,9.05
2022-08-30T19:21:40.899Z,12.20
2022-08-30T19:26:39.760Z,10.32
2022-08-30T19:31:41.711Z,9.48
2022-08-30T19:36:35.273Z,8.55
2022-08-30T19:41:29.764Z,8.07
2022-08-30T19:46:28.258Z,13.52
2022-08-30T19:51:23.819Z,9.63
2022-08-30T19:56:20.703Z,9.30
2022-08-30T20:01:33.083Z,13.18
2022-08-30T20:06:33.879Z,12.15
2022-08-30T20:11:34.378Z,9.32
2022-08-30T20:16:33.168Z,15.98
2022-08-30T20:21:32.419Z,12.63
2022-08-30T20:26:34.252Z,8.20
2022-08-30T20:31:33.824Z,11.25
2022-08-30T20:36:29.361Z,12.05
2022-08-30T20:41:29.726Z,11.02
2022-08-30T20:46:23.045Z,10.38
2022-08-30T20:51:19.499Z,9.27
2022-08-30T20:56:13.589Z,13.68
2022-08-30T21:01:10.774Z,10.80
2022-08-30T21:06:04.226Z,10.30
2022-08-30T21:10:57.676Z,8.50
2022-08-30T21:15:57.644Z,12.32
2022-08-30T21:20:57.606Z,11.77
2022-08-30T21:25:52.960Z,7.93
2022-08-30T21:30:49.039Z,10.30
2022-08-30T21:35:59.991Z,7.53
2022-08-30T21:40:57.096Z,9.40
2022-08-30T21:45:55.325Z,9.73
2022-08-30T21:50:48.732Z,13.43
2022-08-30T21:55:43.665Z,10.40
2022-08-30T22:00:40.878Z,8.25
2022-08-30T22:05:36.946Z,10.85
2022-08-30T22:10:33.207Z,9.48
2022-08-30T22:15:32.113Z,8.55
2022-08-30T22:20:27.563Z,10.35
2022-08-30T22:25:23.977Z,7.28
2022-08-30T22:30:17.834Z,10.10
2022-08-30T22:35:11.697Z,7.80
2022-08-30T22:40:07.295Z,7.78
2022-08-30T22:45:00.605Z,9.75
2022-08-30T22:49:54.062Z,10.82
2022-08-30T22:54:48.342Z,8.60
2022-08-30T22:59:43.125Z,10.60
2022-08-30T23:04:37.707Z,11.70
2022-08-30T23:09:31.365Z,11.73
2022-08-30T23:14:24.738Z,7.45
2022-08-30T23:19:19.583Z,9.07
2022-08-30T23:24:30.411Z,8.38
2022-08-30T23:29:41.310Z,9.23
2022-08-30T23:34:54.054Z,8.57
2022-08-30T23:40:04.797Z,9.05
2022-08-30T23:45:15.660Z,9.45
2022-08-30T23:50:27.989Z,9.48
2022-08-30T23:55:38.622Z,8.35
